createdAt,value
2019-02-16T00:01:16.805Z,102112.88
2019-02-16T00:03:24.649Z,102106.37
2019-02-16T00:05:32.324Z,102102.00
2019-02-16T00:07:40.036Z,102099.41
2019-02-16T00:09:47.730Z,102099.81
2019-02-16T00:11:55.521Z,102098.94
2019-02-16T00:14:03.238Z,102105.05
2019-02-16T00:16:10.940Z,102104.58
2019-02-16T00:18:18.636Z,102099.41
2019-02-16T00:20:26.384Z,102103.27
2019-02-16T00:22:34.140Z,102099.39
2019-02-16T00:24:41.895Z,102088.07
2019-02-16T00:26:49.695Z,102088.92
2019-02-16T00:28:57.430Z,102096.33
2019-02-16T00:31:05.208Z,102096.73
2019-02-16T00:33:12.920Z,102096.70
2019-02-16T00:35:20.596Z,102094.99
2019-02-16T00:37:28.200Z,102098.45
2019-02-16T00:39:35.969Z,102106.27
2019-02-16T00:41:43.661Z,102114.55
2019-02-16T00:43:51.436Z,102108.48
2019-02-16T00:45:59.104Z,102101.50
2019-02-16T00:48:06.849Z,102108.83
2019-02-16T00:50:14.657Z,102094.51
2019-02-16T00:52:22.364Z,102104.06
2019-02-16T00:54:29.991Z,102098.45
2019-02-16T00:56:37.551Z,102098.84
2019-02-16T00:58:45.263Z,102091.42
2019-02-16T01:00:53.015Z,102091.46
2019-02-16T01:03:00.699Z,102085.38
2019-02-16T01:05:09.094Z,102080.16
2019-02-16T01:07:16.804Z,102091.01
2019-02-16T01:09:24.451Z,102074.10
2019-02-16T01:11:32.044Z,102076.72
2019-02-16T01:13:39.696Z,102082.34
2019-02-16T01:15:47.470Z,102073.19
2019-02-16T01:17:55.231Z,102070.56
2019-02-16T01:20:02.958Z,102067.55
2019-02-16T01:22:10.530Z,102071.90
2019-02-16T01:24:18.385Z,102066.25
2019-02-16T01:26:26.235Z,102064.94
2019-02-16T01:28:33.840Z,102057.98
2019-02-16T01:30:41.635Z,102051.47
2019-02-16T01:32:49.474Z,102051.48
2019-02-16T01:34:57.124Z,102058.86
2019-02-16T01:37:05.003Z,102055.38
2019-02-16T01:39:12.806Z,102053.18
2019-02-16T01:41:20.548Z,102049.33
2019-02-16T01:43:28.199Z,102055.82
2019-02-16T01:45:35.848Z,102054.92
2019-02-16T01:47:43.909Z,102056.67
2019-02-16T01:49:51.683Z,102059.25
2019-02-16T01:51:59.474Z,102051.44
2019-02-16T01:54:07.652Z,102054.91
2019-02-16T01:56:15.345Z,102057.54
2019-02-16T01:58:23.030Z,102051.89
2019-02-16T02:00:30.662Z,102046.20
2019-02-16T02:02:38.397Z,102035.37
2019-02-16T02:04:46.238Z,102048.83
2019-02-16T02:06:53.784Z,102049.69
2019-02-16T02:09:01.431Z,102047.09
2019-02-16T02:11:09.197Z,102052.25
2019-02-16T02:13:16.779Z,102045.71
2019-02-16T02:15:24.431Z,102045.31
2019-02-16T02:17:32.151Z,102037.05
2019-02-16T02:19:39.909Z,102045.35
2019-02-16T02:21:47.302Z,102050.56
2019-02-16T02:23:55.026Z,102043.61
2019-02-16T02:26:02.579Z,102048.39
2019-02-16T02:28:10.392Z,102046.16
2019-02-16T02:30:18.262Z,102044.44
2019-02-16T02:32:25.888Z,102042.72
2019-02-16T02:34:33.586Z,102043.09
2019-02-16T02:36:41.280Z,102033.93
2019-02-16T02:38:49.092Z,102030.13
2019-02-16T02:40:56.786Z,102031.80
2019-02-16T02:43:04.424Z,102031.39
2019-02-16T02:45:12.575Z,102035.30
2019-02-16T02:47:20.367Z,102030.93
2019-02-16T02:49:28.136Z,102034.81
2019-02-16T02:51:35.888Z,102033.90
2019-02-16T02:53:43.593Z,102032.19
2019-02-16T02:55:51.320Z,102030.50
2019-02-16T02:57:59.091Z,102037.44
2019-02-16T03:00:07.920Z,102033.93
2019-02-16T03:02:15.535Z,102024.41
2019-02-16T03:04:23.116Z,102027.02
2019-02-16T03:06:30.874Z,102034.78
2019-02-16T03:08:38.675Z,102032.66
2019-02-16T03:10:46.419Z,102026.16
2019-02-16T03:12:54.070Z,102023.96
2019-02-16T03:15:01.770Z,102026.98
2019-02-16T03:17:09.571Z,102026.97
2019-02-16T03:19:17.274Z,102040.05
2019-02-16T03:21:24.865Z,102028.72
2019-02-16T03:23:33.007Z,102025.64
2019-02-16T03:25:40.932Z,102029.11
2019-02-16T03:28:32.423Z,102033.83
2019-02-16T03:31:48.047Z,102030.84
2019-02-16T03:34:06.021Z,102028.62
2019-02-16T03:37:16.425Z,102032.91
2019-02-16T03:39:38.625Z,102035.55
2019-02-16T03:41:46.398Z,102025.19
2019-02-16T03:43:54.057Z,102026.02
2019-02-16T03:46:01.494Z,102029.40
2019-02-16T03:48:09.300Z,102026.83
2019-02-16T03:50:16.937Z,102024.74
2019-02-16T03:52:24.521Z,102026.08
2019-02-16T03:54:32.430Z,102022.95
2019-02-16T03:56:40.090Z,102024.59
2019-02-16T03:58:47.739Z,102024.13
2019-02-16T04:00:55.378Z,102020.32
2019-02-16T04:03:03.191Z,102020.28
2019-02-16T04:05:11.059Z,102019.02
2019-02-16T04:07:18.783Z,102009.89
2019-02-16T04:09:26.444Z,102012.44
2019-02-16T04:11:34.147Z,102010.24
2019-02-16T04:13:41.814Z,102012.02
2019-02-16T04:15:49.650Z,102010.73
2019-02-16T04:17:57.398Z,102008.52
2019-02-16T04:20:05.466Z,102009.81
2019-02-16T04:22:23.835Z,102005.09
2019-02-16T04:24:22.653Z,102009.73
2019-02-16T04:26:30.496Z,102003.70
2019-02-16T04:28:38.101Z,102005.27
2019-02-16T04:30:45.810Z,102002.75
2019-02-16T04:32:53.509Z,102005.29
2019-02-16T04:35:01.226Z,101999.03
2019-02-16T04:37:08.864Z,101998.95
2019-02-16T04:39:16.533Z,102007.22
2019-02-16T04:41:24.289Z,101998.07
2019-02-16T04:43:32.127Z,101996.35
2019-02-16T04:45:40.023Z,101997.69
2019-02-16T04:47:47.774Z,102000.22
2019-02-16T04:49:55.418Z,101994.16
2019-02-16T04:52:03.218Z,102000.17
2019-02-16T04:54:11.040Z,102003.98
2019-02-16T04:56:18.788Z,101998.84
2019-02-16T04:58:26.502Z,102003.19
2019-02-16T05:00:34.119Z,102001.43
2019-02-16T05:02:41.860Z,102004.13
2019-02-16T05:04:49.625Z,101999.80
2019-02-16T05:06:57.485Z,101994.59
2019-02-16T05:09:06.887Z,101997.52
2019-02-16T05:11:14.485Z,101999.23
2019-02-16T05:13:22.147Z,102001.47
2019-02-16T05:15:29.909Z,101993.69
2019-02-16T05:17:37.559Z,101992.88
2019-02-16T05:19:45.237Z,101989.37
2019-02-16T05:21:52.958Z,101993.28
2019-02-16T05:24:00.703Z,102001.52
2019-02-16T05:26:08.485Z,101997.56
2019-02-16T05:28:16.169Z,101994.96
2019-02-16T05:30:23.505Z,102002.27
2019-02-16T05:32:30.858Z,101994.11
2019-02-16T05:34:38.226Z,102000.56
2019-02-16T05:36:46.223Z,102001.47
2019-02-16T05:38:53.937Z,101996.07
2019-02-16T05:41:01.601Z,102002.27
2019-02-16T05:43:10.323Z,101996.14
2019-02-16T05:45:18.178Z,101999.59
2019-02-16T05:47:25.804Z,102002.19
2019-02-16T05:49:33.436Z,102003.16
2019-02-16T05:51:41.015Z,102004.81
2019-02-16T05:53:48.692Z,102004.36
2019-02-16T05:55:56.389Z,102008.20
2019-02-16T05:58:04.167Z,102013.41
2019-02-16T06:00:13.296Z,102011.74
2019-02-16T06:02:21.073Z,102015.22
2019-02-16T06:04:28.814Z,102011.69
2019-02-16T06:06:36.427Z,102015.01
2019-02-16T06:08:44.039Z,102017.77
2019-02-16T06:10:51.735Z,102010.78
2019-02-16T06:12:59.417Z,102016.43
2019-02-16T06:15:07.841Z,102017.31
2019-02-16T06:17:15.431Z,102010.90
2019-02-16T06:19:23.096Z,102021.62
2019-02-16T06:21:30.789Z,102015.98
2019-02-16T06:23:38.536Z,102021.64
2019-02-16T06:25:46.452Z,102019.55
2019-02-16T06:27:54.303Z,102020.49
2019-02-16T06:30:01.793Z,102019.53
2019-02-16T06:32:09.498Z,102022.68
2019-02-16T06:34:17.134Z,102018.25
2019-02-16T06:36:43.812Z,102018.30
2019-02-16T06:38:51.517Z,102021.30
2019-02-16T06:40:59.401Z,102018.19
2019-02-16T06:43:07.195Z,102017.83
2019-02-16T06:45:14.961Z,102011.22
2019-02-16T06:47:22.771Z,102020.80
2019-02-16T06:49:30.717Z,102019.34
2019-02-16T06:51:38.473Z,102011.10
2019-02-16T06:53:46.196Z,102013.69
2019-02-16T06:56:00.618Z,102006.83
2019-02-16T06:58:08.488Z,102013.92
2019-02-16T07:00:18.054Z,102012.52
2019-02-16T07:02:26.973Z,102008.20
2019-02-16T07:04:34.868Z,102016.83
2019-02-16T07:06:42.740Z,102022.09
2019-02-16T07:08:50.852Z,102027.79
2019-02-16T07:10:58.694Z,102025.18
2019-02-16T07:13:06.509Z,102019.49
2019-02-16T07:15:14.174Z,102018.99
2019-02-16T07:17:40.590Z,102024.98
2019-02-16T07:19:52.031Z,102024.59
2019-02-16T07:21:59.812Z,102022.98
2019-02-16T07:24:07.571Z,102020.33
2019-02-16T07:26:15.523Z,102016.98
2019-02-16T07:28:23.028Z,102025.72
2019-02-16T07:30:30.585Z,102020.12
2019-02-16T07:32:38.427Z,102020.42
2019-02-16T07:34:46.160Z,102018.72
2019-02-16T07:36:53.821Z,102025.06
2019-02-16T07:39:01.489Z,102029.32
2019-02-16T07:41:09.244Z,102029.91
2019-02-16T07:43:54.234Z,102033.87
2019-02-16T07:46:07.907Z,102038.66
2019-02-16T07:48:26.301Z,102037.23
2019-02-16T07:50:40.310Z,102045.55
2019-02-16T07:53:09.725Z,102031.27
2019-02-16T07:55:36.433Z,102029.45
2019-02-16T07:57:52.877Z,102032.92
2019-02-16T08:00:14.306Z,102032.05
2019-02-16T08:02:39.701Z,102031.30
2019-02-16T08:05:06.119Z,102024.81
2019-02-16T08:07:38.735Z,102025.64
2019-02-16T08:10:08.095Z,102031.33
2019-02-16T08:12:40.726Z,102029.60
2019-02-16T08:15:00.105Z,102024.82
2019-02-16T08:17:26.903Z,102024.76
2019-02-16T08:19:57.539Z,102025.53
2019-02-16T08:22:11.637Z,102032.09
2019-02-16T08:24:45.503Z,102032.50
2019-02-16T08:27:10.712Z,102034.23
2019-02-16T08:29:52.197Z,102034.63
2019-02-16T08:32:18.971Z,102033.81
2019-02-16T08:34:42.650Z,102036.01
2019-02-16T08:37:09.582Z,102027.31
2019-02-16T08:39:31.522Z,102038.05
2019-02-16T08:42:04.288Z,102030.66
2019-02-16T08:44:37.152Z,102027.63
2019-02-16T08:46:54.551Z,102036.70
2019-02-16T08:49:24.184Z,102037.47
2019-02-16T08:51:40.218Z,102030.17
2019-02-16T08:54:25.285Z,102015.01
2019-02-16T08:56:54.665Z,102015.86
2019-02-16T08:59:23.844Z,102017.75
2019-02-16T09:01:53.097Z,102011.36
2019-02-16T09:04:12.229Z,102011.79
2019-02-16T09:06:32.842Z,102017.78
2019-02-16T09:09:05.475Z,102006.52
2019-02-16T09:11:24.106Z,102007.19
2019-02-16T09:14:02.707Z,101998.57
2019-02-16T09:16:29.242Z,101996.48
2019-02-16T09:18:58.601Z,101999.53
2019-02-16T09:21:28.047Z,101999.97
2019-02-16T09:23:59.452Z,101994.30
2019-02-16T09:26:13.806Z,101995.26
2019-02-16T09:28:40.279Z,101990.91
2019-02-16T09:31:05.538Z,101988.38
2019-02-16T09:33:32.954Z,101987.08
2019-02-16T09:35:58.281Z,101989.66
2019-02-16T09:38:28.202Z,102001.38
2019-02-16T09:41:02.732Z,101998.78
2019-02-16T09:43:38.384Z,102000.59
2019-02-16T09:46:02.799Z,102000.62
2019-02-16T09:48:16.886Z,102004.55
2019-02-16T09:50:46.402Z,102001.98
2019-02-16T09:53:31.492Z,101996.77
2019-02-16T09:55:57.076Z,101997.19
2019-02-16T09:58:22.830Z,101996.72
2019-02-16T10:00:40.393Z,101996.77
2019-02-16T10:03:00.495Z,101996.39
2019-02-16T10:05:26.566Z,101993.34
2019-02-16T10:07:47.493Z,101995.87
2019-02-16T10:10:04.030Z,101991.56
2019-02-16T10:12:42.672Z,101995.95
2019-02-16T10:15:08.719Z,101985.97
2019-02-16T10:17:26.260Z,101978.61
2019-02-16T10:20:00.325Z,101975.55
2019-02-16T10:22:28.303Z,101976.89
2019-02-16T10:24:55.889Z,101969.88
2019-02-16T10:27:21.484Z,101972.09
2019-02-16T10:29:51.390Z,101971.22
2019-02-16T10:32:17.064Z,101965.62
2019-02-16T10:34:48.969Z,101962.16
2019-02-16T10:37:14.676Z,101950.44
2019-02-16T10:39:44.424Z,101952.59
2019-02-16T10:42:12.073Z,101946.52
2019-02-16T10:44:56.983Z,101950.03
2019-02-16T10:47:38.684Z,101944.34
2019-02-16T10:50:07.960Z,101947.01
2019-02-16T10:52:34.943Z,101934.00
2019-02-16T10:55:02.089Z,101940.53
2019-02-16T10:57:26.225Z,101939.21
2019-02-16T11:00:02.074Z,101941.37
2019-02-16T11:02:15.896Z,101933.16
2019-02-16T11:04:57.831Z,101923.17
2019-02-16T11:07:29.309Z,101933.19
2019-02-16T11:09:43.031Z,101923.63
2019-02-16T11:12:12.998Z,101931.02
2019-02-16T11:14:49.021Z,101940.59
2019-02-16T11:17:09.758Z,101941.44
2019-02-16T11:19:45.775Z,101937.11
2019-02-16T11:22:18.975Z,101937.99
2019-02-16T11:24:41.199Z,101925.80
2019-02-16T11:27:06.578Z,101928.85
2019-02-16T11:29:39.301Z,101924.02
2019-02-16T11:32:08.825Z,101922.20
2019-02-16T11:34:32.865Z,101926.07
2019-02-16T11:37:05.847Z,101916.48
2019-02-16T11:39:35.385Z,101913.45
2019-02-16T11:41:49.096Z,101914.76
2019-02-16T11:44:21.763Z,101895.53
2019-02-16T11:47:00.411Z,101889.36
2019-02-16T11:49:39.286Z,101892.68
2019-02-16T11:51:58.562Z,101889.95
2019-02-16T11:54:23.887Z,101888.34
2019-02-16T11:56:50.497Z,101883.56
2019-02-16T11:59:25.773Z,101891.37
2019-02-16T12:01:58.178Z,101884.27
2019-02-16T12:04:29.257Z,101883.90
2019-02-16T12:06:58.801Z,101879.33
2019-02-16T12:09:26.426Z,101879.77
2019-02-16T12:12:05.654Z,101881.45
2019-02-16T12:14:23.546Z,101880.19
2019-02-16T12:16:49.628Z,101878.38
2019-02-16T12:19:15.795Z,101878.34
2019-02-16T12:21:42.934Z,101870.88
2019-02-16T12:24:18.126Z,101873.50
2019-02-16T12:26:42.979Z,101880.05
2019-02-16T12:29:18.480Z,101872.19
2019-02-16T12:31:47.671Z,101873.31
2019-02-16T12:34:06.825Z,101871.89
2019-02-16T12:36:36.065Z,101868.48
2019-02-16T12:39:04.838Z,101864.18
2019-02-16T12:41:24.720Z,101867.06
2019-02-16T12:44:02.757Z,101863.53
2019-02-16T12:46:19.906Z,101863.23
2019-02-16T12:48:36.390Z,101860.33
2019-02-16T12:51:01.224Z,101856.13
2019-02-16T12:53:33.457Z,101857.44
2019-02-16T12:55:59.642Z,101844.04
2019-02-16T12:58:18.798Z,101842.41
2019-02-16T13:00:45.199Z,101845.35
2019-02-16T13:03:10.077Z,101850.41
2019-02-16T13:05:46.069Z,101845.62
2019-02-16T13:07:57.926Z,101841.50
2019-02-16T13:10:33.688Z,101835.31
2019-02-16T13:12:59.820Z,101828.78
2019-02-16T13:15:35.405Z,101825.86
2019-02-16T13:18:07.758Z,101825.70
2019-02-16T13:20:49.191Z,101822.69
2019-02-16T13:23:06.362Z,101824.31
2019-02-16T13:25:32.625Z,101819.45
2019-02-16T13:28:01.796Z,101821.55
2019-02-16T13:30:16.809Z,101821.47
2019-02-16T13:32:44.352Z,101808.80
2019-02-16T13:35:13.837Z,101812.48
2019-02-16T13:37:42.739Z,101804.59
2019-02-16T13:40:17.516Z,101806.94
2019-02-16T13:42:50.349Z,101794.04
2019-02-16T13:45:03.805Z,101796.80
2019-02-16T13:47:39.812Z,101795.68
2019-02-16T13:50:06.045Z,101792.70
2019-02-16T13:52:30.188Z,101783.86
2019-02-16T13:54:43.968Z,101774.62
2019-02-16T13:57:20.276Z,101771.98
2019-02-16T13:59:40.922Z,101759.39
2019-02-16T14:02:13.835Z,101761.34
2019-02-16T14:04:38.557Z,101767.02
2019-02-16T14:07:07.834Z,101755.61
2019-02-16T14:09:43.960Z,101756.78
2019-02-16T14:12:00.925Z,101754.03
2019-02-16T14:14:18.980Z,101753.88
2019-02-16T14:16:34.504Z,101754.61
2019-02-16T14:18:42.144Z,101747.09
2019-02-16T14:20:49.784Z,101744.70
2019-02-16T14:22:57.707Z,101739.28
2019-02-16T14:25:07.637Z,101740.71
2019-02-16T14:27:15.357Z,101741.47
2019-02-16T14:29:24.282Z,101729.41
2019-02-16T14:31:31.949Z,101727.03
2019-02-16T14:33:39.672Z,101733.53
2019-02-16T14:35:47.468Z,101727.50
2019-02-16T14:38:08.767Z,101729.13
2019-02-16T14:40:16.526Z,101727.46
2019-02-16T14:42:24.625Z,101724.28
2019-02-16T14:44:32.314Z,101730.29
2019-02-16T14:46:40.073Z,101718.52
2019-02-16T14:48:49.862Z,101722.69
2019-02-16T14:50:57.314Z,101722.16
2019-02-16T14:53:05.281Z,101716.78
2019-02-16T14:55:14.881Z,101713.22
2019-02-16T14:57:22.604Z,101710.21
2019-02-16T14:59:30.457Z,101711.42
2019-02-16T15:01:38.374Z,101714.38
2019-02-16T15:03:46.432Z,101709.95
2019-02-16T15:05:54.289Z,101704.08
2019-02-16T15:08:02.032Z,101708.19
2019-02-16T15:10:10.899Z,101696.73
2019-02-16T15:12:18.707Z,101691.26
2019-02-16T15:14:26.809Z,101690.69
2019-02-16T15:16:34.636Z,101692.67
2019-02-16T15:18:42.448Z,101683.23
2019-02-16T15:20:50.242Z,101688.73
2019-02-16T15:22:58.212Z,101680.68
2019-02-16T15:25:06.335Z,101679.37
2019-02-16T15:27:14.163Z,101681.73
2019-02-16T15:29:22.312Z,101675.47
2019-02-16T15:31:30.197Z,101682.69
2019-02-16T15:33:38.116Z,101686.80
2019-02-16T15:35:46.349Z,101690.39
2019-02-16T15:37:54.347Z,101684.34
2019-02-16T15:40:02.475Z,101684.28
2019-02-16T15:42:10.573Z,101681.28
2019-02-16T15:44:18.484Z,101676.66
2019-02-16T15:46:26.457Z,101675.55
2019-02-16T15:48:34.347Z,101664.77
2019-02-16T15:50:42.224Z,101666.17
2019-02-16T15:52:50.054Z,101661.52
2019-02-16T15:54:57.995Z,101659.36
2019-02-16T15:57:05.782Z,101660.37
2019-02-16T15:59:13.783Z,101660.11
2019-02-16T16:01:21.516Z,101658.80
2019-02-16T16:03:29.233Z,101654.87
2019-02-16T16:05:36.974Z,101653.61
2019-02-16T16:07:49.520Z,101650.09
2019-02-16T16:10:21.858Z,101656.30
2019-02-16T16:12:56.305Z,101654.48
2019-02-16T16:15:12.774Z,101648.01
2019-02-16T16:17:39.365Z,101642.09
2019-02-16T16:19:57.276Z,101651.72
2019-02-16T16:22:29.093Z,101653.09
2019-02-16T16:24:45.695Z,101649.38
2019-02-16T16:27:18.115Z,101646.31
2019-02-16T16:29:36.823Z,101655.19
2019-02-16T16:32:03.569Z,101645.17
2019-02-16T16:34:24.837Z,101650.86
2019-02-16T16:36:58.119Z,101639.64
2019-02-16T16:39:25.953Z,101641.45
2019-02-16T16:41:53.135Z,101632.75
2019-02-16T16:44:10.457Z,101623.06
2019-02-16T16:46:39.513Z,101622.11
2019-02-16T16:49:19.961Z,101625.63
2019-02-16T16:51:58.781Z,101625.67
2019-02-16T16:54:28.442Z,101621.80
2019-02-16T16:56:44.592Z,101619.64
2019-02-16T16:59:09.874Z,101618.08
2019-02-16T17:01:35.509Z,101615.45
2019-02-16T17:04:04.758Z,101612.39
2019-02-16T17:06:38.028Z,101609.02
2019-02-16T17:09:00.793Z,101618.58
2019-02-16T17:11:26.445Z,101623.89
2019-02-16T17:13:40.439Z,101624.42
2019-02-16T17:15:54.212Z,101622.75
2019-02-16T17:18:19.554Z,101628.12
2019-02-16T17:20:34.623Z,101624.20
2019-02-16T17:22:52.440Z,101627.73
2019-02-16T17:25:17.900Z,101628.62
2019-02-16T17:27:50.692Z,101625.60
2019-02-16T17:30:22.934Z,101624.45
2019-02-16T17:32:58.662Z,101617.52
2019-02-16T17:35:16.452Z,101614.42
2019-02-16T17:37:51.616Z,101611.03
2019-02-16T17:40:18.316Z,101608.83
2019-02-16T17:42:51.518Z,101607.14
2019-02-16T17:45:19.172Z,101611.02
2019-02-16T17:47:48.749Z,101601.50
2019-02-16T17:50:24.568Z,101602.42
2019-02-16T17:52:49.196Z,101601.11
2019-02-16T17:55:15.573Z,101601.13
2019-02-16T17:57:33.924Z,101596.80
2019-02-16T18:00:03.520Z,101585.59
2019-02-16T18:02:21.791Z,101584.30
2019-02-16T18:04:47.826Z,101583.82
2019-02-16T18:07:13.605Z,101579.48
2019-02-16T18:09:46.851Z,101576.01
2019-02-16T18:12:16.432Z,101578.23
2019-02-16T18:14:44.558Z,101576.06
2019-02-16T18:17:26.373Z,101567.81
2019-02-16T18:19:55.147Z,101570.88
2019-02-16T18:22:15.901Z,101563.93
2019-02-16T18:24:41.094Z,101558.71
2019-02-16T18:27:02.472Z,101556.09
2019-02-16T18:29:38.400Z,101561.31
2019-02-16T18:32:05.152Z,101545.70
2019-02-16T18:34:30.627Z,101553.97
2019-02-16T18:36:58.932Z,101544.42
2019-02-16T18:39:19.075Z,101547.45
2019-02-16T18:41:52.099Z,101541.83
2019-02-16T18:44:31.009Z,101539.23
2019-02-16T18:46:48.544Z,101536.59
2019-02-16T18:49:15.477Z,101537.06
2019-02-16T18:51:45.415Z,101541.39
2019-02-16T18:54:02.402Z,101546.61
2019-02-16T18:56:29.457Z,101550.95
2019-02-16T18:58:54.965Z,101548.34
2019-02-16T19:01:24.057Z,101543.16
2019-02-16T19:03:49.262Z,101533.61
2019-02-16T19:06:04.421Z,101541.41
2019-02-16T19:08:30.262Z,101536.20
2019-02-16T19:10:47.479Z,101536.22
2019-02-16T19:13:20.374Z,101535.34
2019-02-16T19:16:05.260Z,101530.13
2019-02-16T19:18:24.308Z,101531.86
2019-02-16T19:20:49.266Z,101524.48
2019-02-16T19:23:24.981Z,101526.64
2019-02-16T19:25:44.650Z,101530.53
2019-02-16T19:28:12.196Z,101520.58
2019-02-16T19:30:37.795Z,101519.70
2019-02-16T19:33:04.727Z,101520.56
2019-02-16T19:35:30.495Z,101519.23
2019-02-16T19:37:52.169Z,101519.69
2019-02-16T19:40:18.868Z,101522.70
2019-02-16T19:42:51.812Z,101525.72
2019-02-16T19:45:19.422Z,101526.56
2019-02-16T19:47:45.806Z,101525.24
2019-02-16T19:50:13.049Z,101520.47
2019-02-16T19:52:43.170Z,101514.83
2019-02-16T19:55:15.811Z,101520.92
2019-02-16T19:57:35.070Z,101513.95
2019-02-16T20:00:02.236Z,101504.48
2019-02-16T20:02:35.014Z,101507.50
2019-02-16T20:05:16.800Z,101517.41
2019-02-16T20:07:53.683Z,101512.25
2019-02-16T20:10:23.125Z,101504.89
2019-02-16T20:13:05.065Z,101504.89
2019-02-16T20:15:30.400Z,101501.37
2019-02-16T20:17:56.188Z,101507.44
2019-02-16T20:20:25.740Z,101499.62
2019-02-16T20:22:51.561Z,101494.87
2019-02-16T20:25:18.057Z,101494.04
2019-02-16T20:27:44.555Z,101500.53
2019-02-16T20:30:14.120Z,101486.66
2019-02-16T20:32:40.595Z,101491.41
2019-02-16T20:35:03.241Z,101478.38
2019-02-16T20:37:33.052Z,101480.98
2019-02-16T20:40:02.679Z,101476.22
2019-02-16T20:42:28.036Z,101477.97
2019-02-16T20:44:55.073Z,101478.38
2019-02-16T20:47:18.088Z,101471.86
2019-02-16T20:49:53.908Z,101470.98
2019-02-16T20:52:19.609Z,101470.53
2019-02-16T20:54:47.460Z,101474.42
2019-02-16T20:57:04.695Z,101470.55
2019-02-16T20:59:46.797Z,101467.51
2019-02-16T21:02:16.510Z,101467.84
2019-02-16T21:04:42.942Z,101465.27
2019-02-16T21:07:08.755Z,101455.34
2019-02-16T21:09:34.115Z,101451.42
2019-02-16T21:12:03.572Z,101447.59
2019-02-16T21:14:25.187Z,101450.59
2019-02-16T21:16:46.635Z,101449.67
2019-02-16T21:19:12.020Z,101447.92
2019-02-16T21:21:41.268Z,101459.63
2019-02-16T21:24:16.921Z,101455.68
2019-02-16T21:26:36.532Z,101442.23
2019-02-16T21:29:03.562Z,101447.89
2019-02-16T21:31:29.124Z,101441.38
2019-02-16T21:34:04.856Z,101442.26
2019-02-16T21:36:24.103Z,101443.97
2019-02-16T21:38:51.287Z,101447.39
2019-02-16T21:41:14.437Z,101440.50
2019-02-16T21:43:31.909Z,101438.78
2019-02-16T21:46:04.207Z,101443.09
2019-02-16T21:48:20.386Z,101442.20
2019-02-16T21:50:47.073Z,101443.97
2019-02-16T21:53:21.030Z,101443.91
2019-02-16T21:55:37.005Z,101447.36
2019-02-16T21:58:07.971Z,101449.45
2019-02-16T22:00:39.999Z,101440.01
2019-02-16T22:03:18.930Z,101438.67
2019-02-16T22:05:52.642Z,101442.60
2019-02-16T22:08:19.359Z,101436.93
2019-02-16T22:10:44.476Z,101444.36
2019-02-16T22:13:09.601Z,101448.67
2019-02-16T22:15:17.418Z,101446.06
2019-02-16T22:17:25.275Z,101442.14
2019-02-16T22:19:32.621Z,101443.02
2019-02-16T22:21:40.266Z,101438.20
2019-02-16T22:23:47.793Z,101434.31
2019-02-16T22:25:55.870Z,101429.13
2019-02-16T22:28:03.623Z,101435.16
2019-02-16T22:30:11.947Z,101426.16
2019-02-16T22:32:19.401Z,101429.16
2019-02-16T22:34:27.256Z,101424.44
2019-02-16T22:36:35.210Z,101424.02
2019-02-16T22:38:43.981Z,101421.38
2019-02-16T22:40:51.833Z,101421.91
2019-02-16T22:42:59.878Z,101423.22
2019-02-16T22:45:08.426Z,101424.95
2019-02-16T22:47:16.138Z,101421.97
2019-02-16T22:49:24.719Z,101421.60
2019-02-16T22:51:32.616Z,101420.70
2019-02-16T22:53:40.623Z,101417.73
2019-02-16T22:55:48.394Z,101418.24
2019-02-16T22:57:56.086Z,101420.84
2019-02-16T23:00:04.068Z,101406.66
2019-02-16T23:02:13.184Z,101401.92
2019-02-16T23:04:21.055Z,101405.17
2019-02-16T23:06:28.852Z,101394.11
2019-02-16T23:08:36.729Z,101399.64
2019-02-16T23:10:44.490Z,101394.84
2019-02-16T23:12:52.294Z,101389.25
2019-02-16T23:15:00.024Z,101382.80
2019-02-16T23:17:07.877Z,101375.41
2019-02-16T23:19:15.700Z,101372.98
2019-02-16T23:21:23.480Z,101372.77
2019-02-16T23:23:31.289Z,101378.44
2019-02-16T23:25:39.247Z,101377.53
2019-02-16T23:27:46.704Z,101371.89
2019-02-16T23:29:54.598Z,101374.56
2019-02-16T23:32:02.322Z,101378.16
2019-02-16T23:34:10.001Z,101366.92
2019-02-16T23:36:17.849Z,101368.94
2019-02-16T23:38:25.952Z,101367.61
2019-02-16T23:40:33.746Z,101349.17
2019-02-16T23:42:41.949Z,101358.68
2019-02-16T23:44:49.728Z,101355.67
2019-02-16T23:46:57.514Z,101358.98
2019-02-16T23:49:05.336Z,101359.64
2019-02-16T23:51:13.123Z,101355.47
2019-02-16T23:53:21.076Z,101357.99
2019-02-16T23:55:28.915Z,101348.65
2019-02-16T23:57:36.680Z,101352.20
